< < Back
Terminal Aerodrome Forecast


Current Version              Previous Versions:   1  2  3  4  5  6  7  8  9  

Terminal Aerodrome Forecast

045
FTUS44 KBMX 252348 CCA
TAFBHM
TAF COR
KBHM 252348Z 2600/2624 15008KT P6SM -RA SCT005 SCT035 BKN110
     FM260800 14008KT P6SM BKN004 BKN007 OVC015
      TEMPO 2610/2614 BKN015
     FM261400 16008KT P6SM BKN015 BKN050
     FM261900 18008KT P6SM VCTS BKN030CB=

Latest METAR

165
SAUS70 KWBC 252300 RRA
MTRBHM
METAR KBHM 252253Z 14008KT 10SM BKN110 21/19 A3017 RMK AO2 SLP208
T02110194 $


USA.gov is the U.S. government's official web portal to all federal, state and local government web resources and services.